Kezdőlap
METAR-TAF:

METAR-TAF

Repülőterek :

Sharurah, Szaúd-Arábia

földrajzi szélesség: 17-28N, földrajzi hosszúság: 047-07E, magasság: 720 m

Jelenlegi meteorológiai megfigyelések

A jelentés 48 perccel ezelõtt készült, 19:00 UTC
Észak-északkeleti szél 4 kt
Hőmérséklet 37°C
Páratartalom 7%
Légköri nyomás 1006 hPa
Látótávolság 10 km, vagy több
felhőtlen 1500 m magasságban, és nincs gomolyfelhõ

METAR: OESH 151900Z 02004KT CAVOK 37/M05 Q1006 NOSIG

Idő: 22:48 (19:48 UTC)

Előrejelzés

A jelentés 8 órával és 48 perccel ezelõtt készült, 11:00 UTC
Az előrejelzés 15-én 12 óra UTC és 16-én 18 óra UTC között érvényes
Északi szél 10 kt
Látótávolság 10 km, vagy több
Kevés felhő 4000 lábon
15-én 20 óra UTC és 15-én 22 óra UTC között fokozatosan kialakuló
Déli szél 8 kt
16-én 08 óra UTC és 16-én 10 óra UTC között fokozatosan kialakuló
Északi szél 8 kt

TAF: OESH 151100Z 1512/1618 36010KT 9999 FEW040 BECMG 1520/1522 19008KT BECMG 1608/1610 36008KT

Meteorológiai megfigyelések és előrejelzések több, mint 4000 repülőtéren (METAR és TAF jelentéseket).

A térképen piros és sárga pontok jelzik az elérhető meteorológiai állomásokat.

Mozgassa az egeret a pont fölött, hogy megjelenjen az állomás neve.

Azután kattintson az időjárási megfigyelések és előrejelzések megtekintéséhez.

A térkép megváltoztatása: kattintson a fekete keresztel jelölt zöld gombra ráközelítéshez, a vonallal jelölt zöld gombra távolításhoz, vagy a zöld nyilakra a szomszédos térképek eléréséhez.


METAR-TAF: